Time;durP1;ratioP1;P1;durP2;ratioP2;P2;SDS_P1;SDS_P2;PMS_P1;PMS_P2;Temp;Humidity;BMP_temperature;BMP_pressure;BME280_temperature;BME280_humidity;BME280_pressure;Samples;Min_cycle;Max_cycle;Signal;HPM_P1;HPM_P2
2023/12/23 00:01:55;;;;;;;5.57;3.13;;;;;;;3.51;100.00;91745.22;5143294;27;20399;-75
2023/12/23 00:04:22;;;;;;;5.70;3.90;;;;;;;3.63;100.00;91734.44;5140294;27;20051;-75
2023/12/23 00:06:48;;;;;;;6.85;3.33;;;;;;;3.48;100.00;91712.66;5129963;27;20356;-75
2023/12/23 00:09:17;;;;;;;7.80;2.63;;;;;;;3.39;100.00;91679.13;5132972;27;20054;-75
2023/12/23 00:11:44;;;;;;;6.97;3.35;;;;;;;3.66;100.00;91693.41;5131793;27;20150;-75
2023/12/23 00:14:11;;;;;;;7.38;3.60;;;;;;;3.67;100.00;91698.28;5127700;27;20043;-75
2023/12/23 00:16:38;;;;;;;7.20;2.58;;;;;;;3.56;100.00;91689.56;5129222;27;20043;-75
2023/12/23 00:19:05;;;;;;;9.10;5.60;;;;;;;3.58;100.00;91696.97;5134939;27;20410;-76
2023/12/23 00:21:32;;;;;;;5.47;2.95;;;;;;;3.58;100.00;91709.66;5136399;27;20846;-75
2023/12/23 00:23:59;;;;;;;11.25;5.75;;;;;;;3.56;100.00;91731.94;5131362;27;20043;-76
2023/12/23 00:26:27;;;;;;;9.82;4.57;;;;;;;3.63;100.00;91734.44;5129249;27;20043;-75
2023/12/23 00:28:55;;;;;;;7.43;3.58;;;;;;;3.55;100.00;91736.25;5127642;27;20387;-75
2023/12/23 00:31:21;;;;;;;5.80;3.30;;;;;;;3.39;100.00;91716.41;5132755;27;20047;-76
2023/12/23 00:33:49;;;;;;;5.82;3.15;;;;;;;3.40;100.00;91708.59;5131616;27;20066;-75
2023/12/23 00:36:16;;;;;;;5.50;3.08;;;;;;;3.33;100.00;91702.75;5130526;27;20127;-76
2023/12/23 00:38:43;;;;;;;9.30;4.30;;;;;;;3.37;100.00;91690.44;5144128;27;20126;-76
2023/12/23 00:41:10;;;;;;;6.43;3.45;;;;;;;3.38;100.00;91697.84;5131668;27;20049;-75
2023/12/23 00:43:39;;;;;;;6.38;3.00;;;;;;;3.20;100.00;91696.75;5137213;27;20047;-75
2023/12/23 00:46:07;;;;;;;3.08;2.15;;;;;;;3.01;100.00;91690.78;5137567;27;20046;-75
2023/12/23 00:48:34;;;;;;;4.30;1.80;;;;;;;3.06;100.00;91713.78;5131663;27;20052;-75
2023/12/23 00:51:01;;;;;;;3.88;2.65;;;;;;;3.11;100.00;91714.94;5136053;27;20500;-75
2023/12/23 00:53:28;;;;;;;6.32;3.42;;;;;;;3.01;100.00;91708.53;5132841;27;20054;-75
2023/12/23 00:55:54;;;;;;;3.45;1.83;;;;;;;3.11;100.00;91713.19;5138059;27;20078;-75
2023/12/23 00:58:21;;;;;;;3.40;2.05;;;;;;;3.13;100.00;91716.31;5140824;27;20188;-75
2023/12/23 01:00:50;;;;;;;2.97;2.08;;;;;;;3.07;100.00;91720.41;5138827;27;20039;-75
2023/12/23 01:03:16;;;;;;;2.92;1.50;;;;;;;2.98;100.00;91719.09;5131614;27;20042;-75
2023/12/23 01:05:43;;;;;;;2.70;1.70;;;;;;;2.92;100.00;91717.38;5141979;27;20068;-75
2023/12/23 01:08:11;;;;;;;3.30;1.92;;;;;;;2.93;100.00;91709.53;5134187;27;20054;-75
2023/12/23 01:10:38;;;;;;;2.42;1.63;;;;;;;2.86;100.00;91718.94;5132387;27;20471;-75
2023/12/23 01:13:05;;;;;;;3.33;1.60;;;;;;;2.90;100.00;91722.63;5135270;27;20133;-75
2023/12/23 01:15:32;;;;;;;3.60;1.80;;;;;;;2.88;100.00;91723.81;5133616;27;20051;-75
2023/12/23 01:18:00;;;;;;;3.42;1.88;;;;;;;2.84;100.00;91710.75;5136505;27;20391;-75
2023/12/23 01:20:27;;;;;;;2.90;2.03;;;;;;;2.97;100.00;91730.22;5138029;27;20045;-75
2023/12/23 01:22:54;;;;;;;3.50;1.70;;;;;;;3.00;100.00;91696.06;5136397;27;20061;-75
2023/12/23 01:25:22;;;;;;;3.35;2.00;;;;;;;3.02;100.00;91705.00;5136075;27;20055;-75
2023/12/23 01:27:49;;;;;;;2.20;1.40;;;;;;;3.01;100.00;91677.34;5131462;27;20430;-75
2023/12/23 01:30:16;;;;;;;2.70;1.67;;;;;;;3.03;100.00;91677.91;5133673;27;20039;-76
2023/12/23 01:32:43;;;;;;;3.22;1.77;;;;;;;3.09;100.00;91681.41;5130004;27;20048;-75
2023/12/23 01:35:11;;;;;;;2.90;2.00;;;;;;;3.07;100.00;91663.84;5131056;27;20050;-75
2023/12/23 01:37:38;;;;;;;4.82;2.35;;;;;;;3.11;100.00;91682.75;5137119;27;20052;-75
2023/12/23 01:40:07;;;;;;;4.38;2.00;;;;;;;3.22;100.00;91683.88;5141745;27;20039;-75
2023/12/23 01:42:33;;;;;;;3.40;2.00;;;;;;;2.95;100.00;91653.53;5129668;27;20054;-76
2023/12/23 01:45:00;;;;;;;3.38;1.77;;;;;;;3.26;100.00;91694.38;5133277;27;20034;-75
2023/12/23 01:47:27;;;;;;;8.13;2.05;;;;;;;3.21;100.00;91683.09;5128568;27;20054;-75
2023/12/23 01:49:56;;;;;;;5.75;1.60;;;;;;;3.29;100.00;91671.91;5130042;27;20053;-75
2023/12/23 01:52:24;;;;;;;3.45;1.92;;;;;;;3.18;100.00;91664.94;5132015;27;20045;-76
2023/12/23 01:54:52;;;;;;;3.67;2.00;;;;;;;3.13;100.00;91654.63;5129976;27;20047;-76
2023/12/23 01:57:19;;;;;;;4.25;1.98;;;;;;;2.85;100.00;91608.31;5134058;27;20047;-76
2023/12/23 01:59:46;;;;;;;5.28;2.83;;;;;;;3.04;100.00;91649.81;5131727;27;20154;-75
2023/12/23 02:02:14;;;;;;;4.45;1.67;;;;;;;3.04;100.00;91647.25;5131968;27;20058;-75
2023/12/23 02:04:41;;;;;;;3.20;1.85;;;;;;;2.98;100.00;91637.94;5132100;27;20043;-74
2023/12/23 02:07:08;;;;;;;3.63;1.58;;;;;;;3.03;100.00;91655.06;5136655;27;20115;-75
2023/12/23 02:09:37;;;;;;;3.22;1.60;;;;;;;3.17;100.00;91660.84;5134537;27;20130;-75
2023/12/23 02:12:12;;;;;;;4.72;1.85;;;;;;;3.26;100.00;91658.88;5131330;27;20054;-75
2023/12/23 02:14:43;;;;;;;5.93;3.53;;;;;;;3.23;100.00;91636.44;5135237;27;20693;-76
2023/12/23 02:17:10;;;;;;;7.15;2.63;;;;;;;3.22;100.00;91648.34;5136652;27;20199;-75
2023/12/23 02:19:37;;;;;;;5.95;2.53;;;;;;;3.26;100.00;91652.03;5131472;27;20047;-76
2023/12/23 02:22:06;;;;;;;8.90;4.03;;;;;;;3.35;100.00;91655.13;5130879;27;20418;-75
2023/12/23 02:24:33;;;;;;;3.53;2.15;;;;;;;3.27;100.00;91658.66;5133316;27;20047;-75
2023/12/23 02:27:05;;;;;;;3.70;1.90;;;;;;;3.29;100.00;91671.16;5130596;27;20113;-75
2023/12/23 02:29:33;;;;;;;2.65;1.30;;;;;;;3.18;100.00;91652.25;5130860;27;20050;-75
2023/12/23 02:32:02;;;;;;;4.70;2.30;;;;;;;3.36;100.00;91658.41;5135111;27;20043;-75
2023/12/23 02:34:30;;;;;;;8.60;3.97;;;;;;;3.32;100.00;91632.66;5129481;27;20103;-75
2023/12/23 02:36:57;;;;;;;10.35;5.35;;;;;;;3.50;100.00;91636.28;5133430;27;20121;-75
2023/12/23 02:39:25;;;;;;;19.88;11.13;;;;;;;3.58;100.00;91631.75;5140513;27;20405;-75
2023/12/23 02:41:52;;;;;;;2.35;1.23;;;;;;;3.50;100.00;91608.34;5129789;27;20043;-76
2023/12/23 02:44:19;;;;;;;8.25;4.82;;;;;;;3.59;100.00;91605.38;5129898;27;20499;-76
2023/12/23 02:46:46;;;;;;;3.17;2.00;;;;;;;3.49;100.00;91602.50;5130490;27;20043;-78
2023/12/23 02:49:13;;;;;;;2.80;1.50;;;;;;;3.56;100.00;91607.53;5132589;27;20047;-78
2023/12/23 02:51:40;;;;;;;3.25;1.50;;;;;;;3.62;100.00;91604.19;5128775;27;20058;-76
2023/12/23 02:54:06;;;;;;;4.28;1.50;;;;;;;3.64;100.00;91599.66;5130937;27;20042;-76
2023/12/23 02:56:35;;;;;;;1.88;1.00;;;;;;;3.81;100.00;91591.53;5128091;27;20050;-77
2023/12/23 02:59:02;;;;;;;2.08;1.10;;;;;;;3.82;100.00;91605.78;5133376;27;20043;-78
2023/12/23 03:01:29;;;;;;;2.78;1.38;;;;;;;3.85;100.00;91593.44;5132182;27;20487;-77
2023/12/23 03:03:56;;;;;;;3.20;1.35;;;;;;;3.83;100.00;91604.78;5129220;27;20043;-78
2023/12/23 03:06:22;;;;;;;2.25;1.02;;;;;;;3.91;100.00;91632.47;5128203;27;20122;-78
2023/12/23 03:08:49;;;;;;;4.75;1.70;;;;;;;3.84;100.00;91609.66;5129722;27;20520;-77
2023/12/23 03:11:16;;;;;;;3.63;2.33;;;;;;;4.01;100.00;91609.91;5130430;27;20043;-78
2023/12/23 03:13:45;;;;;;;4.88;1.85;;;;;;;4.08;99.61;91616.72;5132660;27;20058;-77
2023/12/23 03:16:16;;;;;;;3.67;1.40;;;;;;;4.17;99.62;91629.91;5129524;27;20042;-77
2023/12/23 03:18:43;;;;;;;14.68;8.73;;;;;;;4.16;99.12;91623.28;5131393;27;20099;-77
2023/12/23 03:21:10;;;;;;;3.78;1.60;;;;;;;4.09;99.30;91624.13;5137577;27;20410;-77
2023/12/23 03:23:37;;;;;;;3.75;1.60;;;;;;;4.26;99.38;91649.00;5133830;27;20141;-76
2023/12/23 03:26:04;;;;;;;2.92;1.23;;;;;;;4.07;99.70;91626.09;5130150;27;20521;-76
2023/12/23 03:28:31;;;;;;;2.25;1.25;;;;;;;4.12;99.80;91649.09;5129971;27;20054;-77
2023/12/23 03:30:59;;;;;;;3.50;1.30;;;;;;;3.99;99.99;91634.75;5137903;27;20043;-77
2023/12/23 03:33:26;;;;;;;3.22;1.27;;;;;;;4.13;98.96;91630.31;5129184;27;20051;-76
2023/12/23 03:35:53;;;;;;;4.30;1.30;;;;;;;4.17;99.08;91625.59;5127599;27;20531;-76
2023/12/23 03:38:21;;;;;;;5.00;1.45;;;;;;;4.18;99.22;91631.47;5132124;27;20053;-76
2023/12/23 03:40:48;;;;;;;3.38;1.50;;;;;;;4.13;98.38;91630.31;5129535;27;20079;-75
2023/12/23 03:43:15;;;;;;;3.42;1.52;;;;;;;4.20;98.43;91634.56;5130800;27;20042;-75
2023/12/23 03:45:42;;;;;;;4.68;1.50;;;;;;;4.16;98.38;91644.38;5127898;27;20050;-75
2023/12/23 03:48:10;;;;;;;4.20;1.33;;;;;;;4.25;98.71;91658.38;5129521;27;20055;-76
2023/12/23 03:50:37;;;;;;;8.13;1.55;;;;;;;4.23;98.57;91646.88;5128086;27;20351;-76
2023/12/23 03:53:05;;;;;;;3.30;1.50;;;;;;;4.16;98.45;91636.00;5138173;27;20131;-75
2023/12/23 03:55:32;;;;;;;5.15;1.38;;;;;;;4.10;97.37;91614.72;5127728;27;20488;-75
2023/12/23 03:57:59;;;;;;;3.08;1.50;;;;;;;4.14;97.55;91621.75;5135528;27;20047;-76
2023/12/23 04:00:27;;;;;;;3.78;1.58;;;;;;;4.10;97.38;91623.13;5135044;27;20047;-77
2023/12/23 04:02:54;;;;;;;4.85;1.58;;;;;;;4.17;96.78;91624.84;5137077;27;20397;-76
2023/12/23 04:05:22;;;;;;;5.80;2.13;;;;;;;4.23;97.43;91604.44;5137005;27;20039;-76
2023/12/23 04:07:50;;;;;;;7.22;3.25;;;;;;;4.19;97.12;91600.78;5139095;27;20404;-76
2023/12/23 04:10:17;;;;;;;5.13;1.90;;;;;;;4.19;96.34;91564.41;5131798;27;20411;-76
2023/12/23 04:12:44;;;;;;;7.38;2.55;;;;;;;4.40;96.53;91591.19;5135022;27;20051;-76
2023/12/23 04:15:11;;;;;;;4.28;1.70;;;;;;;4.39;95.75;91623.44;5134257;27;20488;-76
2023/12/23 04:17:39;;;;;;;2.90;1.40;;;;;;;4.23;96.18;91609.53;5135665;27;20059;-76
2023/12/23 04:20:07;;;;;;;4.47;2.13;;;;;;;4.32;96.40;91621.97;5138911;27;20047;-76
2023/12/23 04:22:36;;;;;;;4.82;2.00;;;;;;;4.31;97.03;91628.81;5135735;27;20043;-77
2023/12/23 04:25:03;;;;;;;3.83;1.75;;;;;;;4.35;96.53;91632.47;5138075;27;20119;-76
2023/12/23 04:27:30;;;;;;;4.95;2.13;;;;;;;4.31;97.84;91608.47;5134680;27;20066;-76
2023/12/23 04:29:57;;;;;;;4.38;1.42;;;;;;;4.23;97.53;91593.50;5136367;27;20049;-77
2023/12/23 04:32:24;;;;;;;4.28;2.10;;;;;;;4.25;97.92;91594.06;5135853;27;20061;-76
2023/12/23 04:34:51;;;;;;;3.53;1.83;;;;;;;4.22;97.50;91605.41;5136010;27;20051;-76
2023/12/23 04:37:18;;;;;;;3.63;1.50;;;;;;;4.17;97.38;91612.13;5147563;27;20073;-76
2023/12/23 04:39:46;;;;;;;4.43;2.15;;;;;;;4.29;96.58;91612.97;5138575;27;20097;-76
2023/12/23 04:42:13;;;;;;;5.28;2.50;;;;;;;4.34;96.16;91619.97;5139437;27;20043;-76
2023/12/23 04:44:40;;;;;;;6.30;3.25;;;;;;;4.46;96.13;91618.31;5133993;27;20059;-76
2023/12/23 04:47:07;;;;;;;5.97;3.17;;;;;;;4.47;95.69;91612.22;5141919;27;20043;-75
2023/12/23 04:49:34;;;;;;;4.93;2.65;;;;;;;4.51;95.73;91604.94;5138260;27;20047;-75
2023/12/23 04:52:01;;;;;;;6.38;3.08;;;;;;;4.45;96.00;91614.22;5140929;27;20045;-77
2023/12/23 04:54:28;;;;;;;5.40;2.67;;;;;;;4.46;94.98;91614.97;5142297;27;20047;-76
2023/12/23 04:56:56;;;;;;;4.57;1.80;;;;;;;4.51;95.06;91640.53;5142083;27;20039;-76
2023/12/23 04:59:23;;;;;;;4.22;2.00;;;;;;;4.47;94.78;91629.22;5139406;27;20095;-76
2023/12/23 05:01:50;;;;;;;4.45;1.60;;;;;;;4.53;94.95;91657.16;5135962;27;20057;-75
2023/12/23 05:04:17;;;;;;;3.75;1.60;;;;;;;4.53;95.11;91669.06;5143540;27;20122;-75
2023/12/23 05:06:44;;;;;;;4.97;1.70;;;;;;;4.52;95.13;91657.34;5139010;27;20054;-76
2023/12/23 05:09:11;;;;;;;3.17;1.73;;;;;;;4.56;94.98;91666.13;5135116;27;20567;-77
2023/12/23 05:11:38;;;;;;;2.88;1.45;;;;;;;4.71;94.56;91663.22;5136397;27;20119;-77
2023/12/23 05:14:06;;;;;;;2.95;1.45;;;;;;;4.61;94.45;91651.00;5137310;27;20049;-77
2023/12/23 05:16:33;;;;;;;5.38;1.60;;;;;;;4.59;94.41;91653.00;5138558;27;20051;-77
2023/12/23 05:19:00;;;;;;;3.85;1.83;;;;;;;4.60;94.68;91662.19;5142853;27;20976;-76
2023/12/23 05:21:27;;;;;;;3.40;1.85;;;;;;;4.71;93.99;91683.56;5137603;27;20074;-74
2023/12/23 05:23:54;;;;;;;5.03;2.38;;;;;;;4.77;93.08;91680.19;5139479;27;20047;-76
2023/12/23 05:26:21;;;;;;;4.95;2.42;;;;;;;4.80;93.39;91686.63;5132659;27;20043;-75
2023/12/23 05:28:49;;;;;;;3.97;1.70;;;;;;;4.75;94.22;91694.88;5133599;27;20414;-76
2023/12/23 05:31:17;;;;;;;4.65;1.70;;;;;;;4.72;94.07;91694.53;5131979;27;20053;-77
2023/12/23 05:33:44;;;;;;;5.97;3.40;;;;;;;4.79;94.21;91683.31;5141097;27;20058;-75
2023/12/23 05:36:11;;;;;;;5.57;3.00;;;;;;;4.77;93.85;91684.50;5141151;27;20042;-76
2023/12/23 05:38:38;;;;;;;6.50;3.30;;;;;;;4.78;92.70;91686.06;5137348;27;20445;-76
2023/12/23 05:41:05;;;;;;;8.60;3.88;;;;;;;4.82;94.04;91684.66;5140074;27;20039;-76
2023/12/23 05:43:32;;;;;;;11.88;4.78;;;;;;;4.89;92.79;91687.09;5132510;27;20043;-76
2023/12/23 05:45:58;;;;;;;46.45;23.77;;;;;;;4.81;93.18;91686.41;5141886;27;20508;-76
2023/12/23 05:48:27;;;;;;;16.95;8.80;;;;;;;4.88;93.45;91693.19;5130829;27;20053;-76
2023/12/23 05:50:54;;;;;;;6.55;3.15;;;;;;;4.94;92.55;91703.31;5140198;27;20395;-76
2023/12/23 05:53:21;;;;;;;8.88;4.88;;;;;;;4.95;91.99;91712.50;5141116;27;20046;-76
2023/12/23 05:55:48;;;;;;;7.10;3.90;;;;;;;4.95;93.13;91709.94;5143976;27;20474;-75
2023/12/23 05:58:15;;;;;;;16.05;7.47;;;;;;;5.00;93.21;91718.72;5142758;27;20050;-76
2023/12/23 06:00:41;;;;;;;9.80;5.30;;;;;;;4.75;93.36;91689.81;5134344;27;20062;-76
2023/12/23 06:03:08;;;;;;;32.47;14.50;;;;;;;4.84;93.25;91707.31;5139211;27;20049;-76
2023/12/23 06:05:37;;;;;;;21.70;10.95;;;;;;;4.86;92.93;91697.72;5144480;27;20082;-76
2023/12/23 06:08:07;;;;;;;13.90;6.72;;;;;;;4.98;92.74;91713.03;5130865;27;20042;-76
2023/12/23 06:10:34;;;;;;;8.95;4.55;;;;;;;5.02;93.07;91711.63;5134661;27;20410;-75
2023/12/23 06:13:00;;;;;;;11.75;5.35;;;;;;;4.95;92.89;91702.31;5142408;27;20039;-76
2023/12/23 06:15:27;;;;;;;10.98;5.72;;;;;;;4.93;92.43;91709.38;5138135;27;20057;-75
2023/12/23 06:17:54;;;;;;;9.02;4.82;;;;;;;4.90;92.17;91704.72;5139966;27;20153;-75
2023/12/23 06:20:21;;;;;;;10.13;4.93;;;;;;;5.11;92.13;91728.19;5142092;27;20054;-75
2023/12/23 06:22:50;;;;;;;11.98;6.25;;;;;;;5.27;92.08;91726.81;5132329;27;20038;-76
2023/12/23 06:25:17;;;;;;;16.08;7.93;;;;;;;5.17;92.57;91729.88;5135386;27;20043;-75
2023/12/23 06:27:44;;;;;;;10.55;5.88;;;;;;;5.09;92.46;91730.16;5131360;27;20047;-75
2023/12/23 06:30:12;;;;;;;10.65;4.85;;;;;;;5.18;92.36;91733.19;5131793;27;20065;-75
2023/12/23 06:32:39;;;;;;;4.28;1.75;;;;;;;5.18;93.52;91730.63;5137066;27;20483;-77
2023/12/23 06:35:06;;;;;;;3.45;1.35;;;;;;;5.25;93.19;91743.31;5130780;27;20049;-77
2023/12/23 06:37:33;;;;;;;4.10;2.53;;;;;;;5.20;92.65;91729.44;5129947;27;20058;-77
2023/12/23 06:40:01;;;;;;;8.07;3.03;;;;;;;5.33;93.37;91717.56;5134016;27;20138;-76
2023/12/23 06:42:28;;;;;;;7.68;4.10;;;;;;;5.37;92.12;91702.63;5130069;27;20493;-77
2023/12/23 06:44:55;;;;;;;8.93;4.97;;;;;;;5.46;92.34;91686.84;5128419;27;20126;-77
2023/12/23 06:47:22;;;;;;;15.65;8.90;;;;;;;5.47;91.94;91692.72;5131985;27;20061;-76
2023/12/23 06:49:49;;;;;;;8.32;4.43;;;;;;;5.35;91.45;91698.53;5133902;27;20525;-76
2023/12/23 06:52:16;;;;;;;8.10;3.58;;;;;;;5.55;90.95;91735.69;5129958;27;20069;-76
2023/12/23 06:54:43;;;;;;;7.85;3.67;;;;;;;5.55;91.22;91742.59;5132392;27;20047;-76
2023/12/23 06:57:11;;;;;;;5.57;3.20;;;;;;;5.74;90.63;91735.69;5134464;27;20047;-75
2023/12/23 06:59:38;;;;;;;7.95;4.40;;;;;;;5.67;90.27;91725.56;5132741;27;20054;-75
2023/12/23 07:02:05;;;;;;;7.57;3.33;;;;;;;5.74;90.16;91721.16;5130705;27;20490;-75
2023/12/23 07:04:32;;;;;;;9.32;4.40;;;;;;;5.86;89.89;91740.81;5128286;27;20862;-75
2023/12/23 07:06:59;;;;;;;6.00;3.55;;;;;;;5.86;89.96;91739.03;5131802;27;20073;-75
2023/12/23 07:09:26;;;;;;;7.35;4.10;;;;;;;5.82;90.20;91725.16;5132678;27;20047;-75
2023/12/23 07:11:53;;;;;;;5.55;3.08;;;;;;;5.80;90.30;91736.56;5134289;27;20054;-77
2023/12/23 07:14:21;;;;;;;7.28;3.83;;;;;;;5.92;90.51;91746.81;5128613;27;20050;-76
2023/12/23 07:16:48;;;;;;;6.70;3.13;;;;;;;5.89;90.74;91742.94;5136093;27;20051;-76
2023/12/23 07:19:16;;;;;;;6.65;3.15;;;;;;;5.83;90.23;91731.06;5132454;27;20045;-76
2023/12/23 07:21:43;;;;;;;5.68;3.45;;;;;;;5.94;90.02;91755.00;5130494;27;20043;-76
2023/12/23 07:24:10;;;;;;;8.18;3.30;;;;;;;5.99;90.26;91739.84;5129484;27;20043;-77
2023/12/23 07:26:37;;;;;;;9.10;3.92;;;;;;;5.89;90.82;91727.63;5132544;27;20440;-76
2023/12/23 07:29:04;;;;;;;5.57;3.20;;;;;;;6.02;89.87;91759.81;5129894;27;20046;-75
2023/12/23 07:31:33;;;;;;;7.43;3.90;;;;;;;5.92;90.26;91724.63;5141610;27;20042;-75
2023/12/23 07:33:59;;;;;;;5.55;2.22;;;;;;;6.08;90.35;91750.53;5130134;27;20487;-75
2023/12/23 07:36:26;;;;;;;3.25;2.03;;;;;;;6.00;90.47;91760.03;5130729;27;20047;-76
2023/12/23 07:38:53;;;;;;;7.47;3.42;;;;;;;6.08;89.57;91755.63;5134932;27;20055;-76
2023/12/23 07:41:20;;;;;;;11.85;5.68;;;;;;;6.05;90.63;91740.75;5135504;27;20053;-76
2023/12/23 07:43:47;;;;;;;8.68;4.63;;;;;;;6.11;90.68;91745.78;5130906;27;20239;-76
2023/12/23 07:46:14;;;;;;;11.57;6.25;;;;;;;6.03;91.45;91761.41;5130613;27;20499;-76
2023/12/23 07:48:42;;;;;;;9.65;4.80;;;;;;;6.01;92.04;91748.03;5147175;27;20045;-77
2023/12/23 07:51:10;;;;;;;10.63;4.68;;;;;;;6.14;91.85;91765.75;5138058;27;20158;-76
2023/12/23 07:53:37;;;;;;;7.07;4.13;;;;;;;6.24;91.22;91784.81;5135382;27;20039;-77
2023/12/23 07:56:06;;;;;;;9.38;4.93;;;;;;;6.32;90.77;91770.97;5135847;27;20057;-77
2023/12/23 07:58:33;;;;;;;10.98;6.95;;;;;;;6.41;90.38;91810.47;5131737;27;20057;-76
2023/12/23 08:01:01;;;;;;;10.27;5.03;;;;;;;6.39;90.63;91797.19;5134220;27;20054;-76
2023/12/23 08:03:28;;;;;;;8.93;4.28;;;;;;;6.43;90.67;91789.88;5137511;27;20055;-76
2023/12/23 08:05:56;;;;;;;8.73;4.82;;;;;;;6.40;91.40;91789.28;5133966;27;20071;-76
2023/12/23 08:08:23;;;;;;;10.48;5.03;;;;;;;6.37;91.44;91784.66;5132576;27;20060;-76
2023/12/23 08:10:52;;;;;;;7.53;4.25;;;;;;;6.42;91.46;91799.28;5132711;27;20410;-76
2023/12/23 08:13:20;;;;;;;9.38;4.93;;;;;;;6.45;91.26;91816.72;5138863;27;20130;-76
2023/12/23 08:15:47;;;;;;;9.23;4.82;;;;;;;6.47;91.60;91808.84;5132340;27;20557;-76
2023/12/23 08:18:14;;;;;;;13.95;5.47;;;;;;;6.50;91.10;91826.25;5137813;27;20121;-76
2023/12/23 08:20:41;;;;;;;7.43;4.30;;;;;;;6.47;91.43;91835.13;5135890;27;20410;-76
2023/12/23 08:23:09;;;;;;;8.80;4.22;;;;;;;6.58;91.92;91840.47;5142119;27;20064;-75
2023/12/23 08:25:36;;;;;;;9.15;4.05;;;;;;;6.45;92.44;91821.03;5132522;27;20039;-76
2023/12/23 08:28:04;;;;;;;8.77;4.55;;;;;;;6.59;92.07;91836.91;5129933;27;20071;-75
2023/12/23 08:30:31;;;;;;;16.58;4.80;;;;;;;6.51;92.29;91840.56;5136516;27;20050;-76
2023/12/23 08:32:58;;;;;;;9.25;4.57;;;;;;;6.50;92.53;91831.34;5133836;27;20073;-75
2023/12/23 08:35:25;;;;;;;8.05;4.28;;;;;;;6.68;92.87;91858.56;5138437;27;20090;-76
2023/12/23 08:37:52;;;;;;;16.88;9.50;;;;;;;6.81;92.55;91865.25;5132780;27;20413;-75
2023/12/23 08:40:21;;;;;;;8.23;3.83;;;;;;;6.82;92.42;91880.34;5134704;27;20055;-75
2023/12/23 08:42:47;;;;;;;12.40;6.88;;;;;;;6.93;91.90;91888.25;5136241;27;20045;-75
2023/12/23 08:45:14;;;;;;;10.20;5.55;;;;;;;7.03;91.97;91888.47;5132133;27;20047;-75
2023/12/23 08:47:42;;;;;;;14.60;6.53;;;;;;;6.97;91.27;91879.16;5133311;27;20483;-75
2023/12/23 08:50:10;;;;;;;14.50;6.35;;;;;;;7.08;91.82;91896.25;5136038;27;20035;-75
2023/12/23 08:52:37;;;;;;;13.02;6.72;;;;;;;7.16;91.77;91899.47;5132794;27;20046;-75
2023/12/23 08:55:04;;;;;;;11.55;6.25;;;;;;;7.14;91.89;91906.59;5133088;27;20126;-75
2023/12/23 08:57:33;;;;;;;16.58;7.10;;;;;;;7.14;92.47;91904.03;5135379;27;20043;-75
2023/12/23 09:00:01;;;;;;;16.88;9.70;;;;;;;7.24;92.34;91921.34;5133100;27;20050;-75
2023/12/23 09:02:28;;;;;;;10.05;6.07;;;;;;;7.30;92.38;91923.03;5132225;27;20050;-74
2023/12/23 09:04:55;;;;;;;11.30;7.35;;;;;;;7.06;91.34;91935.78;5130872;27;20079;-74
2023/12/23 09:07:45;;;;;;;11.82;6.93;;;;;;;7.38;91.83;91937.25;5137118;27;20049;-74
2023/12/23 09:10:12;;;;;;;50.88;25.60;;;;;;;7.13;90.50;91945.91;5115917;27;20509;-74
2023/12/23 09:12:41;;;;;;;345.45;176.02;;;;;;;7.45;91.45;91943.81;5132396;27;20047;-74
2023/12/23 09:15:08;;;;;;;11.48;7.15;;;;;;;7.12;94.85;91947.66;5133506;27;20068;-74
2023/12/23 09:17:35;;;;;;;20.15;13.10;;;;;;;6.90;97.66;91919.31;5132162;27;20053;-74
2023/12/23 09:20:04;;;;;;;5.88;3.10;;;;;;;7.01;97.89;91954.31;5135100;27;20054;-75
2023/12/23 09:22:31;;;;;;;5.47;2.70;;;;;;;7.00;98.68;91937.44;5131352;27;20127;-74
2023/12/23 09:24:57;;;;;;;6.50;3.20;;;;;;;7.00;98.51;91947.66;5131600;27;20555;-74
2023/12/23 09:27:24;;;;;;;12.50;7.72;;;;;;;6.86;99.40;91961.59;5132910;27;20199;-74
2023/12/23 09:29:53;;;;;;;21.20;14.68;;;;;;;7.21;98.74;91955.78;5130075;27;20491;-75
2023/12/23 09:32:20;;;;;;;4.50;2.78;;;;;;;6.84;98.33;91982.22;5134292;27;20964;-75
2023/12/23 09:34:47;;;;;;;4.22;2.80;;;;;;;6.78;98.34;91962.66;5130702;27;20057;-74
2023/12/23 09:37:14;;;;;;;4.63;2.35;;;;;;;6.69;97.89;91974.97;5132099;27;20473;-74
2023/12/23 09:39:41;;;;;;;4.80;2.10;;;;;;;6.70;97.86;91986.72;5139397;27;20043;-74
2023/12/23 09:42:09;;;;;;;3.42;2.35;;;;;;;6.53;98.17;91977.09;5138720;27;20041;-75
2023/12/23 09:44:36;;;;;;;4.18;2.70;;;;;;;6.81;98.41;91988.53;5132553;27;20051;-75
2023/12/23 09:47:05;;;;;;;3.60;2.53;;;;;;;6.57;97.93;92028.47;5134147;27;20055;-74
2023/12/23 09:49:32;;;;;;;3.35;2.10;;;;;;;6.59;98.58;92033.38;5131758;27;20044;-74
2023/12/23 09:52:00;;;;;;;3.17;2.45;;;;;;;6.34;98.96;92031.69;5131878;27;20494;-74
2023/12/23 09:54:28;;;;;;;6.05;3.65;;;;;;;6.06;100.00;92051.56;5131746;27;20047;-74
2023/12/23 09:56:55;;;;;;;6.97;4.70;;;;;;;6.18;100.00;92022.81;5134873;27;20058;-74
2023/12/23 09:59:24;;;;;;;2.65;1.85;;;;;;;6.09;100.00;92030.75;5133737;27;20053;-74
2023/12/23 10:01:51;;;;;;;3.83;2.30;;;;;;;6.05;100.00;92050.00;5130622;27;20678;-74
2023/12/23 10:04:19;;;;;;;3.00;1.77;;;;;;;5.98;100.00;92065.31;5131215;27;20134;-74
2023/12/23 10:06:46;;;;;;;3.20;1.88;;;;;;;6.01;100.00;92064.91;5133814;27;20043;-74
2023/12/23 10:09:13;;;;;;;3.15;2.20;;;;;;;5.75;100.00;92045.53;5133566;27;20047;-74
2023/12/23 10:11:40;;;;;;;3.67;2.53;;;;;;;5.92;100.00;92050.88;5139337;27;20097;-74
2023/12/23 10:14:07;;;;;;;4.30;2.63;;;;;;;6.03;100.00;92052.00;5134972;27;20092;-73
2023/12/23 10:16:34;;;;;;;3.50;1.92;;;;;;;6.08;100.00;92044.50;5140181;27;20054;-73
2023/12/23 10:19:01;;;;;;;3.88;2.00;;;;;;;5.92;100.00;92070.50;5131158;27;20035;-73
2023/12/23 10:21:30;;;;;;;3.20;2.20;;;;;;;5.85;100.00;92101.91;5129144;27;20053;-73
2023/12/23 10:23:57;;;;;;;3.55;2.15;;;;;;;5.82;100.00;92093.88;5130756;27;20516;-74
2023/12/23 10:26:24;;;;;;;4.25;2.80;;;;;;;6.09;100.00;92101.34;5129964;27;20051;-73
2023/12/23 10:28:57;;;;;;;21.35;5.50;;;;;;;6.22;100.00;92100.47;5133052;27;20421;-73
2023/12/23 10:31:27;;;;;;;7.72;4.72;;;;;;;6.41;100.00;92112.25;5128674;27;20043;-73
2023/12/23 10:34:00;;;;;;;4.50;2.35;;;;;;;6.08;100.00;92115.09;5129521;27;20134;-74
2023/12/23 10:36:28;;;;;;;7.60;3.80;;;;;;;6.39;100.00;92110.91;5132434;27;20058;-74
2023/12/23 10:39:03;;;;;;;5.18;2.70;;;;;;;6.44;100.00;92118.72;5134681;27;20409;-73
2023/12/23 10:41:43;;;;;;;3.08;2.53;;;;;;;6.01;100.00;92136.28;5132342;27;20070;-73
2023/12/23 10:44:11;;;;;;;2.65;1.52;;;;;;;6.09;100.00;92131.94;5138429;27;20043;-73
2023/12/23 10:46:39;;;;;;;3.08;1.67;;;;;;;5.76;100.00;92118.44;5130816;27;20081;-73
2023/12/23 10:49:07;;;;;;;3.00;2.10;;;;;;;5.71;100.00;92136.09;5132521;27;20421;-73
2023/12/23 10:51:35;;;;;;;3.00;1.98;;;;;;;5.69;100.00;92133.00;5132502;27;20051;-73
2023/12/23 10:54:03;;;;;;;3.30;2.30;;;;;;;5.75;100.00;92137.25;5135573;27;20061;-74
2023/12/23 10:56:31;;;;;;;2.63;1.95;;;;;;;5.94;100.00;92124.59;5140664;27;20083;-74
2023/12/23 10:58:58;;;;;;;2.83;1.70;;;;;;;5.88;100.00;92123.66;5134189;27;20046;-73
2023/12/23 11:01:29;;;;;;;2.72;1.83;;;;;;;5.88;100.00;92124.41;5131838;27;20047;-74
2023/12/23 11:04:01;;;;;;;2.63;1.77;;;;;;;6.09;100.00;92137.84;5138724;27;20050;-73
2023/12/23 11:06:30;;;;;;;2.75;1.73;;;;;;;6.08;100.00;92133.72;5131229;27;20062;-74
2023/12/23 11:09:00;;;;;;;2.63;1.80;;;;;;;6.15;100.00;92146.41;5130472;27;20063;-74
2023/12/23 11:11:30;;;;;;;4.15;2.83;;;;;;;6.37;100.00;92144.28;5129649;27;20047;-74
2023/12/23 11:13:58;;;;;;;28.77;11.52;;;;;;;6.02;100.00;92147.28;5129806;27;20043;-73
2023/12/23 11:16:25;;;;;;;11.43;5.03;;;;;;;6.06;100.00;92138.22;5131238;27;20328;-73
2023/12/23 11:18:53;;;;;;;6.75;3.80;;;;;;;6.32;100.00;92144.13;5129096;27;20497;-73
2023/12/23 11:21:20;;;;;;;8.23;5.55;;;;;;;6.43;100.00;92139.31;5139038;27;20061;-73
2023/12/23 11:23:48;;;;;;;15.88;5.05;;;;;;;6.63;100.00;92127.13;5130843;27;20043;-73
2023/12/23 11:26:42;;;;;;;3.25;2.13;;;;;;;6.23;100.00;92151.25;5143372;27;20051;-74
2023/12/23 11:29:10;;;;;;;10.98;6.15;;;;;;;6.17;100.00;92125.81;5119794;27;20084;-73
2023/12/23 11:31:37;;;;;;;7.88;5.22;;;;;;;6.36;100.00;92155.47;5133838;27;20047;-73
2023/12/23 11:34:14;;;;;;;4.57;3.00;;;;;;;6.38;100.00;92152.69;5132202;27;20046;-73
2023/12/23 11:36:43;;;;;;;12.25;6.35;;;;;;;6.52;100.00;92146.47;5129664;27;20047;-73
2023/12/23 11:39:12;;;;;;;7.72;3.88;;;;;;;6.56;100.00;92128.97;5136759;27;20044;-74